ヌーク の空港の天気 - METARとTAF

ヌーク空港 ( BGGH / GOH ) - グリーンランド ヌーク
飛行場実況気象(Metar)
観測時間02/17 19:50 WGT (02/17 22:50 UTC)
風向・風速北東 8m/s
視程-
天気現象
全天を覆う雲 雲底高度 2100m
気温-6℃
湿度68%
気圧994hPa
METARBGGH 172250Z AUTO 05015KT 9999NDV OVC069/// M06/M11 Q0994
過去の天気等 Google飛行場航空写真 Wunderground天気予報

過去48時間のMETAR

飛行場予報(TAF)
発表時間: 2/17 09:04 WGT (2/17 12:04 UTC)
予報対象時間: 17日9時 WGT ~ 17日15時 WGT
風向・風速東 9m/s
視程10km以上
天気現象低い地吹雪
少しの雲 雲底高度 2130m
全天の8割程度の雲 雲底高度 6100m
17日13時 WGT ~ 17日15時 WGT に一時的に
全天の8割程度の雲 雲底高度 2130m
TAF BGGH 171204Z 1712/1718 08017KT 9999 DRSN FEW070 BKN200
TEMPO 1716/1718 BKN070